ENSH

Details ICAO ENSH (SVJ)
Name Svolvaer Helle
Region Norway
Timezone Unknown
Plans Departing 24
Arriving 25
Stats Elevation 29 ft / 9 m (AMSL)
Location 68.242600° 14.668600°
Runways 1
Magnetic Variation 6.233° E
Sunrise 2018-10-21 06:29:19 UTC / 2018-10-21 06:29:19 Local
Sunset 2018-10-21 15:04:56 UTC / 2018-10-21 15:04:56 Local
Advertisement - Login to hide

Runways

ID Width Length Bearing (true/mag) Surface Threshold Overrun Markings Lighting
01 98 ft / 30 m 3,095 ft / 943 m 12.29° / 6.05° ASPHALT 223 ft / 68 m 0 ft / 0 m APP CENTERLINE EDGE THRESHOLD MALSF
19 98 ft / 30 m 3,095 ft / 943 m 192.29° / 186.06° ASPHALT 233 ft / 71 m 0 ft / 0 m APP CENTERLINE EDGE THRESHOLD MALSF

Map

Weather


0- 5 10 15 20 25 30 35+ Temperature / °C

Clouds and Precipitation
Forecast for 2018-10-21 18:00 UTC. Updated 5 hours ago

Ground ~20,000 ft ~40,000 ft Winds

METAR

ENSH 211950Z 23026G36KT 9999 -SHRA FEW020 BKN030 06/03 Q0991 RMK WIND 150FT 24019G32KT 190V270

TAF

Not found

Frequencies

Approach 126.45 MHz Helle Approach
Warning: Do not use this data for real-world aviation or navigation. No guarantee of current accuracy is given.